createdAt,value
2023-05-17T00:00:10.639Z,97904.38
2023-05-17T00:02:38.701Z,97919.94
2023-05-17T00:05:07.325Z,97914.66
2023-05-17T00:07:36.531Z,97920.66
2023-05-17T00:10:04.475Z,97917.28
2023-05-17T00:12:32.305Z,97921.72
2023-05-17T00:15:00.046Z,97916.66
2023-05-17T00:17:27.861Z,97918.72
2023-05-17T00:19:55.953Z,97917.97
2023-05-17T00:22:23.725Z,97923.31
2023-05-17T00:24:52.861Z,97923.31
2023-05-17T00:27:20.639Z,97929.47
2023-05-17T00:29:48.412Z,97938.25
2023-05-17T00:32:16.152Z,97933.94
2023-05-17T00:34:43.918Z,97943.84
2023-05-17T00:37:11.766Z,97934.19
2023-05-17T00:39:39.542Z,97932.78
2023-05-17T00:42:08.766Z,97934.63
2023-05-17T00:44:36.549Z,97937.34
2023-05-17T00:47:04.428Z,97933.31
2023-05-17T00:49:32.220Z,97937.91
2023-05-17T00:52:00.493Z,97931.88
2023-05-17T00:54:28.253Z,97926.91
2023-05-17T00:56:57.175Z,97932.34
2023-05-17T00:59:27.269Z,97920.66
2023-05-17T01:01:55.170Z,97933.47
2023-05-17T01:04:22.954Z,97942.94
2023-05-17T01:06:50.774Z,97946.59
2023-05-17T01:09:18.899Z,97948.38
2023-05-17T01:11:52.637Z,97950.19
2023-05-17T01:14:31.829Z,97954.50
2023-05-17T01:17:02.806Z,97955.44
2023-05-17T01:19:46.816Z,97953.72
2023-05-17T01:22:22.276Z,97954.78
2023-05-17T01:24:54.599Z,97962.56
2023-05-17T01:27:26.561Z,97968.81
2023-05-17T01:29:56.262Z,97964.69
2023-05-17T01:32:24.805Z,97967.53
2023-05-17T01:34:52.607Z,97965.91
2023-05-17T01:37:20.393Z,97963.41
2023-05-17T01:39:48.152Z,97969.59
2023-05-17T01:42:22.520Z,97968.03
2023-05-17T01:44:58.164Z,97975.94
2023-05-17T01:47:32.014Z,97978.66
2023-05-17T01:50:00.740Z,97980.41
2023-05-17T01:52:31.894Z,97978.72
2023-05-17T01:55:06.690Z,97976.44
2023-05-17T01:57:36.936Z,97975.50
2023-05-17T02:00:09.232Z,97970.41
2023-05-17T02:02:37.350Z,97970.44
2023-05-17T02:05:05.722Z,97974.03
2023-05-17T02:07:33.508Z,97974.19
2023-05-17T02:10:01.327Z,97975.16
2023-05-17T02:12:29.117Z,97970.00
2023-05-17T02:14:56.912Z,97971.81
2023-05-17T02:17:26.367Z,97967.56
2023-05-17T02:19:54.241Z,97973.59
2023-05-17T02:22:22.045Z,97970.13
2023-05-17T02:24:50.066Z,97976.31
2023-05-17T02:27:17.861Z,97975.41
2023-05-17T02:29:45.633Z,97970.97
2023-05-17T02:32:13.457Z,97974.50
2023-05-17T02:34:42.652Z,97969.25
2023-05-17T02:37:10.464Z,97978.00
2023-05-17T02:39:38.230Z,97969.56
2023-05-17T02:42:06.587Z,97972.00
2023-05-17T02:44:34.416Z,97960.94
2023-05-17T02:47:02.203Z,97968.47
2023-05-17T02:49:30.052Z,97962.41
2023-05-17T02:52:00.421Z,97966.78
2023-05-17T02:54:28.218Z,97970.31
2023-05-17T02:56:56.017Z,97969.59
2023-05-17T02:59:23.839Z,97972.00
2023-05-17T03:01:51.648Z,97966.09
2023-05-17T03:04:20.388Z,97973.69
2023-05-17T03:06:48.229Z,97980.63
2023-05-17T03:09:17.381Z,97977.34
2023-05-17T03:11:45.192Z,97982.69
2023-05-17T03:14:13.585Z,97980.19
2023-05-17T03:16:41.543Z,97978.53
2023-05-17T03:19:09.488Z,97989.19
2023-05-17T03:21:37.416Z,97982.25
2023-05-17T03:24:05.857Z,97987.47
2023-05-17T03:26:35.006Z,97979.88
2023-05-17T03:29:02.813Z,97984.91
2023-05-17T03:31:31.283Z,97985.09
2023-05-17T03:33:59.257Z,97985.22
2023-05-17T03:36:27.149Z,97966.59
2023-05-17T03:38:54.971Z,97985.50
2023-05-17T03:41:22.827Z,97999.53
2023-05-17T03:43:51.978Z,98002.16
2023-05-17T03:46:19.805Z,97999.78
2023-05-17T03:48:47.626Z,98008.38
2023-05-17T03:51:15.556Z,98001.41
2023-05-17T03:53:43.705Z,97997.94
2023-05-17T03:56:12.008Z,98004.16
2023-05-17T03:58:39.905Z,98003.28
2023-05-17T04:01:09.082Z,98006.75
2023-05-17T04:03:37.474Z,98003.38
2023-05-17T04:06:07.374Z,98009.41
2023-05-17T04:08:35.702Z,98012.03
2023-05-17T04:11:10.253Z,98009.47
2023-05-17T04:13:38.251Z,98019.00
2023-05-17T04:16:06.883Z,98010.44
2023-05-17T04:18:38.069Z,98020.53
2023-05-17T04:21:06.433Z,98027.47
2023-05-17T04:23:35.156Z,98026.66
2023-05-17T04:26:03.276Z,98025.72
2023-05-17T04:28:31.209Z,98036.22
2023-05-17T04:30:59.145Z,98032.59
2023-05-17T04:33:27.507Z,98030.66
2023-05-17T04:35:57.797Z,98032.38
2023-05-17T04:38:25.566Z,98042.69
2023-05-17T04:40:53.359Z,98051.31
2023-05-17T04:43:21.220Z,98054.84
2023-05-17T04:45:49.529Z,98052.09
2023-05-17T04:48:19.622Z,98047.59
2023-05-17T04:50:47.646Z,98056.94
2023-05-17T04:53:16.870Z,98057.69
2023-05-17T04:55:44.945Z,98063.56
2023-05-17T04:58:13.120Z,98058.47
2023-05-17T05:00:41.120Z,98060.88
2023-05-17T05:03:09.006Z,98064.88
2023-05-17T05:05:36.944Z,98069.97
2023-05-17T05:08:04.952Z,98071.47
2023-05-17T05:10:34.091Z,98078.16
2023-05-17T05:13:01.938Z,98082.25
2023-05-17T05:15:29.892Z,98077.03
2023-05-17T05:17:58.004Z,98083.47
2023-05-17T05:20:27.911Z,98079.75
2023-05-17T05:22:58.542Z,98083.69
2023-05-17T05:25:26.726Z,98086.09
2023-05-17T05:27:56.199Z,98079.56
2023-05-17T05:30:24.188Z,98080.16
2023-05-17T05:32:52.466Z,98060.53
2023-05-17T05:35:20.910Z,98025.41
2023-05-17T05:37:48.848Z,98094.06
2023-05-17T05:40:16.977Z,98099.00
2023-05-17T05:42:47.071Z,98102.41
2023-05-17T05:45:16.661Z,98108.25
2023-05-17T05:47:44.493Z,98114.94
2023-05-17T05:50:12.557Z,98095.16
2023-05-17T05:52:40.326Z,98112.53
2023-05-17T05:55:08.812Z,98103.50
2023-05-17T05:57:36.846Z,98115.19
2023-05-17T06:00:05.969Z,98120.00
2023-05-17T06:02:35.261Z,98128.56
2023-05-17T06:05:03.905Z,98126.28
2023-05-17T06:07:31.680Z,98116.31
2023-05-17T06:09:59.501Z,98123.63
2023-05-17T06:12:27.424Z,98129.59
2023-05-17T06:14:55.203Z,98134.84
2023-05-17T06:17:23.290Z,98139.25
2023-05-17T06:19:52.887Z,98140.25
2023-05-17T06:22:20.745Z,98140.97
2023-05-17T06:24:48.588Z,98141.22
2023-05-17T06:27:16.460Z,98147.94
2023-05-17T06:29:44.355Z,98143.72
2023-05-17T06:32:12.881Z,98143.41
2023-05-17T06:34:41.004Z,98141.94
2023-05-17T06:37:10.260Z,98151.53
2023-05-17T06:39:38.064Z,98149.81
2023-05-17T06:42:06.545Z,98153.16
2023-05-17T06:44:34.350Z,98150.84
2023-05-17T06:47:02.144Z,98165.25
2023-05-17T06:49:29.981Z,98173.50
2023-05-17T06:52:03.055Z,98171.50
2023-05-17T06:54:32.673Z,98162.97
2023-05-17T06:57:01.604Z,98161.06
2023-05-17T06:59:29.834Z,98167.59
2023-05-17T07:02:00.161Z,98164.28
2023-05-17T07:04:28.132Z,98160.75
2023-05-17T07:06:56.103Z,98164.72
2023-05-17T07:09:23.952Z,98152.19
2023-05-17T07:11:53.149Z,98166.13
2023-05-17T07:14:20.997Z,98168.69
2023-05-17T07:16:49.331Z,98174.13
2023-05-17T07:19:17.370Z,98172.34
2023-05-17T07:21:46.196Z,98166.91
2023-05-17T07:24:14.017Z,98171.75
2023-05-17T07:26:41.876Z,98170.91
2023-05-17T07:29:11.085Z,98173.19
2023-05-17T07:31:38.876Z,98165.44
2023-05-17T07:34:06.729Z,98171.50
2023-05-17T07:36:34.720Z,98177.63
2023-05-17T07:39:02.638Z,98168.34
2023-05-17T07:41:31.658Z,98164.59
2023-05-17T07:43:59.483Z,98170.84
2023-05-17T07:46:28.737Z,98165.50
2023-05-17T07:48:58.532Z,98174.13
2023-05-17T07:51:27.147Z,98172.75
2023-05-17T07:53:55.154Z,98177.00
2023-05-17T07:56:22.977Z,98174.56
2023-05-17T07:58:51.208Z,98183.97
2023-05-17T08:01:18.999Z,98180.56
2023-05-17T08:03:48.914Z,98184.16
2023-05-17T08:06:17.301Z,98174.72
2023-05-17T08:08:45.393Z,98179.41
2023-05-17T08:11:14.188Z,98185.34
2023-05-17T08:13:42.201Z,98183.13
2023-05-17T08:16:14.349Z,98194.59
2023-05-17T08:18:43.278Z,98190.31
2023-05-17T08:21:12.914Z,98182.91
2023-05-17T08:23:42.070Z,98187.88
2023-05-17T08:26:09.958Z,98188.22
2023-05-17T08:28:37.812Z,98177.69
2023-05-17T08:31:05.836Z,98181.59
2023-05-17T08:33:33.761Z,98180.56
2023-05-17T08:36:04.299Z,98186.84
2023-05-17T08:38:34.369Z,98182.50
2023-05-17T08:41:03.173Z,98179.03
2023-05-17T08:43:32.069Z,98175.69
2023-05-17T08:46:00.176Z,98172.41
2023-05-17T08:48:31.669Z,98164.50
2023-05-17T08:51:00.152Z,98174.56
2023-05-17T08:53:28.249Z,98164.75
2023-05-17T08:56:00.493Z,98166.75
2023-05-17T08:58:31.048Z,98167.22
2023-05-17T09:01:00.458Z,98186.66
2023-05-17T09:03:30.740Z,98187.56
2023-05-17T09:06:00.197Z,98180.19
2023-05-17T09:08:30.158Z,98182.03
2023-05-17T09:10:59.598Z,98176.47
2023-05-17T09:13:27.597Z,98185.97
2023-05-17T09:15:56.023Z,98176.84
2023-05-17T09:18:30.622Z,98180.03
2023-05-17T09:21:03.772Z,98186.44
2023-05-17T09:23:34.236Z,98172.91
2023-05-17T09:26:09.304Z,98173.81
2023-05-17T09:28:42.128Z,98171.88
2023-05-17T09:31:10.818Z,98164.81
2023-05-17T09:33:44.393Z,98165.97
2023-05-17T09:36:21.409Z,98182.97
2023-05-17T09:38:56.447Z,98186.09
2023-05-17T09:41:27.793Z,98180.63
2023-05-17T09:43:59.402Z,98186.28
2023-05-17T09:46:27.357Z,98173.41
2023-05-17T09:48:55.516Z,98161.31
2023-05-17T09:51:33.648Z,98158.13
2023-05-17T09:54:01.780Z,98166.97
2023-05-17T09:56:31.366Z,98155.28
2023-05-17T09:59:00.797Z,98170.97
2023-05-17T10:01:30.305Z,98158.81
2023-05-17T10:04:00.875Z,98168.06
2023-05-17T10:06:44.547Z,98173.41
2023-05-17T10:09:15.813Z,98175.59
2023-05-17T10:11:48.289Z,98172.50
2023-05-17T10:14:22.778Z,98163.44
2023-05-17T10:16:51.755Z,98168.00
2023-05-17T10:19:21.124Z,98160.41
2023-05-17T10:21:49.767Z,98150.09
2023-05-17T10:24:18.104Z,98151.28
2023-05-17T10:26:47.656Z,98159.19
2023-05-17T10:29:16.592Z,98167.47
2023-05-17T10:31:44.905Z,98174.06
2023-05-17T10:34:14.348Z,98167.47
2023-05-17T10:36:43.619Z,98160.50
2023-05-17T10:39:12.395Z,98176.78
2023-05-17T10:41:43.431Z,98163.47
2023-05-17T10:44:14.997Z,98158.19
2023-05-17T10:46:52.628Z,98150.22
2023-05-17T10:49:24.500Z,98151.97
2023-05-17T10:51:52.769Z,98146.53
2023-05-17T10:54:20.756Z,98148.53
2023-05-17T10:56:50.022Z,98148.69
2023-05-17T10:59:21.851Z,98165.44
2023-05-17T11:01:52.662Z,98146.06
2023-05-17T11:04:25.878Z,98143.34
2023-05-17T11:06:55.949Z,98147.44
2023-05-17T11:09:24.916Z,98140.97
2023-05-17T11:12:06.215Z,98141.72
2023-05-17T11:14:55.724Z,98142.56
2023-05-17T11:17:26.445Z,98132.84
2023-05-17T11:20:07.336Z,98127.38
2023-05-17T11:22:40.695Z,98115.75
2023-05-17T11:25:10.439Z,98120.47
2023-05-17T11:27:39.875Z,98129.16
2023-05-17T11:30:18.602Z,98137.84
2023-05-17T11:32:51.860Z,98127.44
2023-05-17T11:35:20.747Z,98142.66
2023-05-17T11:37:49.385Z,98131.31
2023-05-17T11:40:26.334Z,98138.97
2023-05-17T11:43:15.254Z,98143.94
2023-05-17T11:45:53.394Z,98141.41
2023-05-17T11:48:23.539Z,98146.22
2023-05-17T11:50:52.774Z,98144.03
2023-05-17T11:53:21.623Z,98137.03
2023-05-17T11:55:51.740Z,98128.56
2023-05-17T11:58:21.814Z,98136.50
2023-05-17T12:01:01.483Z,98135.56
2023-05-17T12:03:30.324Z,98134.03
2023-05-17T12:06:06.640Z,98130.03
2023-05-17T12:08:36.000Z,98127.06
2023-05-17T12:11:04.762Z,98129.28
2023-05-17T12:13:34.292Z,98136.34
2023-05-17T12:16:05.827Z,98138.38
2023-05-17T12:18:38.168Z,98137.44
2023-05-17T12:21:06.953Z,98143.19
2023-05-17T12:23:37.545Z,98129.53
2023-05-17T12:26:06.874Z,98134.09
2023-05-17T12:28:35.130Z,98131.22
2023-05-17T12:31:05.479Z,98133.72
2023-05-17T12:33:35.488Z,98126.28
2023-05-17T12:36:04.653Z,98131.44
2023-05-17T12:38:33.808Z,98088.63
2023-05-17T12:41:02.649Z,98128.78
2023-05-17T12:43:31.768Z,98123.59
2023-05-17T12:46:18.985Z,98121.97
2023-05-17T12:48:47.328Z,98115.91
2023-05-17T12:51:16.618Z,98091.53
2023-05-17T12:53:45.400Z,98109.16
2023-05-17T12:56:23.080Z,98113.47
2023-05-17T12:59:08.873Z,98105.84
2023-05-17T13:01:40.034Z,98114.91
2023-05-17T13:04:07.933Z,98112.88
2023-05-17T13:06:54.028Z,98097.13
2023-05-17T13:09:24.247Z,98113.75
2023-05-17T13:11:52.503Z,98111.72
2023-05-17T13:14:34.961Z,98115.16
2023-05-17T13:17:06.079Z,98092.75
2023-05-17T13:19:35.807Z,98108.88
2023-05-17T13:22:03.954Z,98109.41
2023-05-17T13:24:32.570Z,98101.22
2023-05-17T13:27:00.392Z,98099.19
2023-05-17T13:29:38.799Z,98106.47
2023-05-17T13:32:09.683Z,98104.06
2023-05-17T13:34:37.664Z,98105.63
2023-05-17T13:37:08.653Z,98101.38
2023-05-17T13:39:38.286Z,98099.44
2023-05-17T13:42:06.621Z,98094.88
2023-05-17T13:44:34.595Z,98092.59
2023-05-17T13:47:02.459Z,98092.38
2023-05-17T13:49:32.032Z,98088.72
2023-05-17T13:52:00.745Z,98092.25
2023-05-17T13:54:28.728Z,98081.56
2023-05-17T13:56:57.667Z,98080.59
2023-05-17T13:59:26.233Z,98090.28
2023-05-17T14:01:54.089Z,98084.16
2023-05-17T14:04:22.685Z,98087.44
2023-05-17T14:06:54.771Z,98081.34
2023-05-17T14:09:22.867Z,98078.41
2023-05-17T14:11:50.652Z,98079.03
2023-05-17T14:14:18.449Z,98074.78
2023-05-17T14:16:46.270Z,98075.38
2023-05-17T14:19:14.264Z,98082.03
2023-05-17T14:21:42.095Z,98072.91
2023-05-17T14:24:11.450Z,98055.06
2023-05-17T14:26:39.404Z,98072.34
2023-05-17T14:29:07.639Z,98070.47
2023-05-17T14:31:35.594Z,98074.44
2023-05-17T14:34:03.975Z,98064.31
2023-05-17T14:36:35.682Z,98056.16
2023-05-17T14:39:03.885Z,98076.78
2023-05-17T14:41:33.157Z,98072.25
2023-05-17T14:44:01.133Z,98062.28
2023-05-17T14:46:28.980Z,98064.44
2023-05-17T14:48:56.986Z,98067.56
2023-05-17T14:51:25.155Z,98070.34
2023-05-17T14:53:54.326Z,98067.75
2023-05-17T14:56:22.303Z,98071.25
2023-05-17T14:58:51.595Z,98060.44
2023-05-17T15:01:19.431Z,98072.78
2023-05-17T15:03:47.384Z,98062.22
2023-05-17T15:06:15.404Z,98070.44
2023-05-17T15:08:43.255Z,98066.00
2023-05-17T15:11:11.192Z,98060.31
2023-05-17T15:13:38.992Z,98064.41
2023-05-17T15:16:09.006Z,98062.75
2023-05-17T15:18:37.922Z,98057.38
2023-05-17T15:21:06.716Z,98063.44
2023-05-17T15:23:34.571Z,98058.16
2023-05-17T15:26:02.377Z,98060.50
2023-05-17T15:28:30.155Z,98056.72
2023-05-17T15:31:01.998Z,98042.22
2023-05-17T15:33:32.266Z,98063.91
2023-05-17T15:36:00.171Z,98056.09
2023-05-17T15:38:27.938Z,98056.72
2023-05-17T15:41:05.141Z,98056.88
2023-05-17T15:43:33.595Z,98043.56
2023-05-17T15:46:01.896Z,98056.72
2023-05-17T15:48:31.146Z,98053.34
2023-05-17T15:50:59.189Z,98059.41
2023-05-17T15:53:27.902Z,98051.13
2023-05-17T15:55:56.171Z,98052.50
2023-05-17T15:58:25.583Z,98051.66
2023-05-17T16:00:53.427Z,98056.00
2023-05-17T16:03:21.274Z,98056.00
2023-05-17T16:05:50.524Z,98045.38
2023-05-17T16:08:20.482Z,98043.84
2023-05-17T16:10:48.427Z,98055.44
2023-05-17T16:13:16.310Z,98059.81
2023-05-17T16:15:44.393Z,98058.72
2023-05-17T16:18:14.823Z,98065.22
2023-05-17T16:20:42.961Z,98066.09
2023-05-17T16:23:12.927Z,98063.06
2023-05-17T16:25:41.596Z,98059.47
2023-05-17T16:28:09.426Z,98065.38
2023-05-17T16:30:37.572Z,98067.44
2023-05-17T16:33:08.260Z,98065.06
2023-05-17T16:35:36.487Z,98066.97
2023-05-17T16:38:04.276Z,98053.47
2023-05-17T16:40:33.849Z,98056.22
2023-05-17T16:43:02.147Z,98062.34
2023-05-17T16:45:30.120Z,98063.75
2023-05-17T16:47:58.225Z,98076.69
2023-05-17T16:50:26.129Z,98072.97
2023-05-17T16:52:54.023Z,98068.69
2023-05-17T16:55:21.951Z,98077.88
2023-05-17T16:57:51.428Z,98074.25
2023-05-17T17:00:20.077Z,98086.63
2023-05-17T17:02:49.395Z,98082.28
2023-05-17T17:05:20.593Z,98078.19
2023-05-17T17:07:48.370Z,98075.50
2023-05-17T17:10:16.386Z,98072.56
2023-05-17T17:12:44.174Z,98077.31
2023-05-17T17:15:14.088Z,98080.94
2023-05-17T17:17:41.994Z,98081.53
2023-05-17T17:20:11.256Z,98070.97
2023-05-17T17:22:39.096Z,98076.00
2023-05-17T17:25:07.692Z,98076.63
2023-05-17T17:27:35.877Z,98083.84
2023-05-17T17:30:04.095Z,98086.50
2023-05-17T17:32:33.474Z,98085.13
2023-05-17T17:35:01.590Z,98080.88
2023-05-17T17:37:29.427Z,98086.41
2023-05-17T17:39:57.502Z,98084.63
2023-05-17T17:42:25.278Z,98080.09
2023-05-17T17:44:53.112Z,98086.56
2023-05-17T17:47:21.026Z,98088.19
2023-05-17T17:49:50.276Z,98088.75
2023-05-17T17:52:18.119Z,98083.09
2023-05-17T17:54:46.285Z,98087.00
2023-05-17T17:57:14.227Z,98091.41
2023-05-17T17:59:42.006Z,98092.75
2023-05-17T18:02:10.058Z,98089.09
2023-05-17T18:04:37.922Z,98091.16
2023-05-17T18:07:07.293Z,98087.56
2023-05-17T18:09:35.055Z,98094.44
2023-05-17T18:12:03.673Z,98088.22
2023-05-17T18:14:31.495Z,98100.16
2023-05-17T18:16:59.320Z,98096.53
2023-05-17T18:19:27.171Z,98094.50
2023-05-17T18:21:54.968Z,98098.22
2023-05-17T18:24:24.208Z,98097.38
2023-05-17T18:26:52.059Z,98099.56
2023-05-17T18:29:19.965Z,98097.25
2023-05-17T18:31:48.422Z,98100.78
2023-05-17T18:34:16.354Z,98105.63
2023-05-17T18:36:44.186Z,98101.78
2023-05-17T18:39:12.102Z,98116.25
2023-05-17T18:41:41.291Z,98105.38
2023-05-17T18:44:09.064Z,98106.34
2023-05-17T18:46:36.995Z,98111.88
2023-05-17T18:49:05.647Z,98112.06
2023-05-17T18:51:33.498Z,98111.00
2023-05-17T18:54:01.286Z,98113.25
2023-05-17T18:56:30.423Z,98119.19
2023-05-17T18:59:00.188Z,98123.56
2023-05-17T19:01:28.521Z,98123.28
2023-05-17T19:03:56.598Z,98126.50
2023-05-17T19:06:26.760Z,98117.72
2023-05-17T19:08:55.426Z,98125.53
2023-05-17T19:11:23.230Z,98129.66
2023-05-17T19:13:51.341Z,98134.44
2023-05-17T19:16:20.491Z,98132.13
2023-05-17T19:18:48.345Z,98137.00
2023-05-17T19:21:16.232Z,98135.06
2023-05-17T19:23:44.072Z,98146.28
2023-05-17T19:26:11.954Z,98127.69
2023-05-17T19:28:40.010Z,98144.34
2023-05-17T19:31:08.343Z,98146.44
2023-05-17T19:33:37.817Z,98152.28
2023-05-17T19:36:05.939Z,98146.97
2023-05-17T19:38:33.780Z,98153.88
2023-05-17T19:41:01.962Z,98153.88
2023-05-17T19:43:29.821Z,98148.53
2023-05-17T19:45:57.620Z,98162.25
2023-05-17T19:48:27.538Z,98162.47
2023-05-17T19:50:57.251Z,98173.22
2023-05-17T19:53:25.051Z,98166.84
2023-05-17T19:55:53.406Z,98174.19
2023-05-17T19:58:21.319Z,98171.19
2023-05-17T20:00:49.108Z,98174.69
2023-05-17T20:03:17.153Z,98168.66
2023-05-17T20:05:45.239Z,98188.28
2023-05-17T20:08:14.705Z,98188.13
2023-05-17T20:10:42.554Z,98190.94
2023-05-17T20:13:10.936Z,98194.47
2023-05-17T20:15:38.975Z,98203.50
2023-05-17T20:18:09.276Z,98199.22
2023-05-17T20:20:37.276Z,98203.81
2023-05-17T20:23:06.303Z,98201.13
2023-05-17T20:25:36.222Z,98205.22
2023-05-17T20:28:04.044Z,98204.88
2023-05-17T20:30:32.193Z,98212.13
2023-05-17T20:33:00.269Z,98204.72
2023-05-17T20:35:28.469Z,98203.00
2023-05-17T20:37:56.272Z,98199.78
2023-05-17T20:40:24.058Z,98206.25
2023-05-17T20:42:53.665Z,98200.31
2023-05-17T20:45:21.753Z,98208.81
2023-05-17T20:47:51.307Z,98208.44
2023-05-17T20:50:21.470Z,98209.81
2023-05-17T20:52:49.666Z,98212.59
2023-05-17T20:55:17.660Z,98206.66
2023-05-17T20:57:45.442Z,98213.19
2023-05-17T21:00:17.171Z,98217.09
2023-05-17T21:02:45.354Z,98202.44
2023-05-17T21:05:13.869Z,98212.41
2023-05-17T21:07:41.780Z,98218.63
2023-05-17T21:10:10.483Z,98219.03
2023-05-17T21:12:38.665Z,98223.84
2023-05-17T21:15:15.723Z,98217.13
2023-05-17T21:17:57.063Z,98215.56
2023-05-17T21:20:25.062Z,98218.97
2023-05-17T21:22:52.899Z,98216.66
2023-05-17T21:25:21.115Z,98219.75
2023-05-17T21:27:48.902Z,98220.91
2023-05-17T21:30:17.106Z,98222.63
2023-05-17T21:32:45.256Z,98223.94
2023-05-17T21:35:14.661Z,98214.72
2023-05-17T21:37:42.595Z,98206.34
2023-05-17T21:40:11.150Z,98223.16
2023-05-17T21:42:39.200Z,98210.53
2023-05-17T21:45:08.112Z,98210.84
2023-05-17T21:47:36.828Z,98206.59
2023-05-17T21:50:05.938Z,98206.72
2023-05-17T21:52:35.363Z,98204.16
2023-05-17T21:55:03.172Z,98212.97
2023-05-17T21:57:33.032Z,98206.13
2023-05-17T22:00:01.186Z,98203.78
2023-05-17T22:02:29.359Z,98198.72
2023-05-17T22:04:57.331Z,98206.84
2023-05-17T22:07:25.643Z,98201.81
2023-05-17T22:09:55.328Z,98202.81
2023-05-17T22:12:25.684Z,98201.81
2023-05-17T22:14:54.291Z,98192.31
2023-05-17T22:17:29.519Z,98192.44
2023-05-17T22:20:04.098Z,98196.28
2023-05-17T22:22:32.902Z,98199.69
2023-05-17T22:25:02.614Z,98198.84
2023-05-17T22:27:30.540Z,98198.28
2023-05-17T22:29:58.431Z,98206.16
2023-05-17T22:32:26.563Z,98202.84
2023-05-17T22:34:56.395Z,98202.00
2023-05-17T22:37:24.360Z,98185.97
2023-05-17T22:39:52.602Z,98202.41
2023-05-17T22:42:22.076Z,98206.88
2023-05-17T22:44:49.878Z,98208.94
2023-05-17T22:47:17.965Z,98205.63
2023-05-17T22:49:46.943Z,98205.63
2023-05-17T22:52:16.618Z,98209.28
2023-05-17T22:54:44.508Z,98177.06
2023-05-17T22:57:12.801Z,98207.91
2023-05-17T22:59:44.053Z,98212.19
2023-05-17T23:02:12.865Z,98220.38
2023-05-17T23:04:41.055Z,98208.28
2023-05-17T23:07:10.099Z,98212.91
2023-05-17T23:09:40.689Z,98212.16
2023-05-17T23:12:13.940Z,98223.78
2023-05-17T23:14:43.571Z,98221.16
2023-05-17T23:17:11.552Z,98222.22
2023-05-17T23:19:40.736Z,98215.28
2023-05-17T23:22:13.212Z,98216.03
2023-05-17T23:24:41.167Z,98208.38
2023-05-17T23:27:10.182Z,98217.13
2023-05-17T23:29:41.468Z,98210.44
2023-05-17T23:32:10.757Z,98216.53
2023-05-17T23:34:39.010Z,98213.00
2023-05-17T23:37:06.881Z,98210.44
2023-05-17T23:39:34.677Z,98203.47
2023-05-17T23:42:02.894Z,98210.50
2023-05-17T23:44:30.782Z,98208.88
2023-05-17T23:46:59.985Z,98207.16
2023-05-17T23:49:29.188Z,98205.47
2023-05-17T23:51:58.000Z,98206.38
2023-05-17T23:54:26.110Z,98206.44
2023-05-17T23:56:53.978Z,98196.81
2023-05-17T23:59:24.444Z,98191.56
